Portada
METAR-TAF:

METAR-TAF

Aeroports :

Aeroport de Castelló

Castelló de la Plana, Espanya

latitud: 40-12-35N, longitud: 0-04-11E, altitud: 360 m

Observació

L'informe es va fer fa 40 minuts, a les 00:30 UTC
Vent calma
Temperatura 10°C
Humitat 87%
Pressió 1007 hPa
Visibilitat 10 km o més
Escasses núvols a una alçada de 1600 ft

METAR: LECH 140030Z AUTO 00000KT 9999 FEW016 10/08 Q1007

Hora: 02:10 (01:10 UTC)


TAF: manca

Observacions i pronòstics meteorològics de més de 4000 aeroports (METAR i TAF).

Les estacions disponibles són els punts grocs i vermells al mapa.

Posi el ratolí al punt desitjat per veure el nom de l'estació.

Feu clic per veure les observacions i els pronòstics meteorològics.

Per canviar el mapa: feu clic els botons verds amb una creu de color negre per apropar; al botó verd amb un guió per allunyar la imatge; o en les fletxes verdes per a mapes adjacents.


METAR-TAF: